Time;durP1;ratioP1;P1;durP2;ratioP2;P2;SDS_P1;SDS_P2;PMS_P1;PMS_P2;Temp;Humidity;BMP_temperature;BMP_pressure;BME280_temperature;BME280_humidity;BME280_pressure;Samples;Min_cycle;Max_cycle;Signal;HPM_P1;HPM_P2
2022/05/03 00:01:16;;;;;;;6.77;5.37;;;13.00;99.90;;;;;;4974493;28;20190;-53
2022/05/03 00:04:24;;;;;;;5.63;5.13;;;12.90;99.90;;;;;;4957998;28;20178;-55
2022/05/03 00:07:06;;;;;;;5.70;5.10;;;12.80;99.90;;;;;;4974274;28;20173;-55
2022/05/03 00:09:44;;;;;;;4.80;4.40;;;12.70;99.90;;;;;;4974310;28;20208;-53
2022/05/03 00:12:15;;;;;;;5.10;4.60;;;13.00;99.90;;;;;;4974270;28;20601;-55
2022/05/03 00:14:48;;;;;;;6.33;5.10;;;12.60;99.90;;;;;;4973842;28;20232;-53
2022/05/03 00:17:15;;;;;;;5.37;4.93;;;12.90;99.90;;;;;;4973863;28;20760;-54
2022/05/03 00:19:43;;;;;;;5.33;4.83;;;12.70;99.90;;;;;;4974103;28;20202;-55
2022/05/03 00:22:12;;;;;;;6.03;4.67;;;13.10;99.90;;;;;;4974055;28;20182;-56
2022/05/03 00:24:38;;;;;;;5.77;5.03;;;12.80;99.90;;;;;;4973536;28;20268;-51
2022/05/03 00:27:04;;;;;;;5.30;4.80;;;12.80;99.90;;;;;;4973924;28;20261;-56
2022/05/03 00:29:30;;;;;;;6.27;5.10;;;12.60;99.90;;;;;;4974001;28;20181;-52
2022/05/03 00:31:57;;;;;;;4.77;4.37;;;12.80;99.90;;;;;;4973940;28;20200;-55
2022/05/03 00:34:23;;;;;;;5.43;4.93;;;12.40;99.90;;;;;;4980819;28;20189;-53
2022/05/03 00:36:49;;;;;;;5.37;4.83;;;12.80;99.90;;;;;;4992902;28;20201;-55
2022/05/03 00:39:14;;;;;;;5.47;4.90;;;12.40;99.90;;;;;;4992950;28;20527;-54
2022/05/03 00:41:45;;;;;;;5.87;5.27;;;12.40;99.90;;;;;;4993189;28;20204;-57
2022/05/03 00:47:15;;;;;;;5.10;4.47;;;12.50;99.90;;;;;;4993242;28;20180;-55
2022/05/03 00:50:02;;;;;;;5.43;4.93;;;12.30;99.90;;;;;;4993006;28;20201;-56
2022/05/03 00:52:35;;;;;;;5.00;4.60;;;12.50;99.90;;;;;;4992950;28;20182;-56
2022/05/03 00:55:01;;;;;;;5.50;5.00;;;;;;;;;;4992589;28;20184;-60
2022/05/03 00:57:50;;;;;;;5.30;4.80;;;12.60;99.90;;;;;;4992585;28;20213;-53
2022/05/03 01:00:15;;;;;;;5.53;5.03;;;12.20;99.90;;;;;;4992894;28;20169;-57
2022/05/03 01:03:20;;;;;;;5.57;4.97;;;12.30;99.90;;;;;;4992866;28;20184;-56
2022/05/03 01:05:51;;;;;;;5.77;5.23;;;12.60;99.90;;;;;;4992426;28;20177;-56
2022/05/03 01:08:43;;;;;;;7.10;5.43;;;12.20;99.90;;;;;;4992574;28;20693;-57
2022/05/03 01:11:08;;;;;;;5.87;5.33;;;13.00;99.90;;;;;;4992626;28;20173;-56
2022/05/03 01:13:41;;;;;;;5.90;5.30;;;12.20;99.90;;;;;;4992393;28;20184;-56
2022/05/03 01:16:20;;;;;;;6.73;4.97;;;12.50;99.90;;;;;;4992528;28;20173;-56
2022/05/03 01:18:46;;;;;;;6.47;5.00;;;;;;;;;;4992464;28;20704;-60
2022/05/03 01:21:23;;;;;;;5.63;5.00;;;12.10;99.90;;;;;;4992532;28;20180;-57
2022/05/03 01:24:32;;;;;;;5.90;5.40;;;12.10;99.90;;;;;;4992274;28;20172;-57
2022/05/03 01:27:17;;;;;;;6.00;5.20;;;12.60;99.90;;;;;;4992247;28;20326;-57
2022/05/03 01:29:48;;;;;;;5.30;4.80;;;12.20;99.90;;;;;;4992628;28;20315;-59
2022/05/03 01:32:21;;;;;;;6.17;5.10;;;12.30;99.90;;;;;;4975861;28;20188;-59
2022/05/03 01:34:47;;;;;;;6.53;5.50;;;;;;;;;;4992343;28;20177;-52
2022/05/03 01:37:36;;;;;;;5.97;5.17;;;11.90;99.90;;;;;;4992466;28;20547;-56
2022/05/03 01:40:48;;;;;;;5.73;5.17;;;12.20;99.90;;;;;;4992668;28;20176;-53
2022/05/03 01:43:40;;;;;;;5.77;4.83;;;12.10;99.90;;;;;;4968670;28;20199;-54
2022/05/03 01:46:24;;;;;;;6.00;5.50;;;12.00;99.90;;;;;;4975213;28;20184;-60
2022/05/03 01:52:11;;;;;;;6.63;6.03;;;12.00;99.90;;;;;;4992396;28;20269;-58
2022/05/03 01:54:47;;;;;;;8.40;7.60;;;11.80;99.90;;;;;;4991888;28;20173;-56
2022/05/03 01:57:43;;;;;;;8.50;7.30;;;11.90;99.90;;;;;;4992900;28;20200;-56
2022/05/03 02:00:11;;;;;;;8.27;6.93;;;11.60;99.90;;;;;;4996155;28;20267;-55
2022/05/03 02:03:14;;;;;;;7.83;7.13;;;11.90;99.90;;;;;;4996198;28;20545;-60
2022/05/03 02:06:18;;;;;;;8.13;7.33;;;11.70;99.90;;;;;;4897957;29;20670;-59
2022/05/03 02:08:57;;;;;;;7.30;6.60;;;11.60;99.90;;;;;;4897750;29;20220;-52
2022/05/03 02:11:47;;;;;;;9.23;6.50;;;11.60;99.90;;;;;;4898019;29;20177;-55
2022/05/03 02:17:20;;;;;;;6.03;5.50;;;11.30;99.90;;;;;;4897728;29;20211;-56
2022/05/03 02:20:22;;;;;;;6.10;5.50;;;11.20;99.90;;;;;;4897807;29;20586;-56
2022/05/03 02:23:14;;;;;;;6.43;5.83;;;11.30;99.90;;;;;;4897603;29;20192;-56
2022/05/03 02:25:40;;;;;;;7.87;6.93;;;;;;;;;;4897383;29;20199;-61
2022/05/03 02:28:27;;;;;;;9.10;7.37;;;11.60;99.90;;;;;;4897606;29;20220;-53
2022/05/03 02:30:54;;;;;;;8.67;7.77;;;11.60;99.90;;;;;;4897606;29;20180;-59
2022/05/03 02:33:49;;;;;;;8.23;7.43;;;11.30;99.90;;;;;;4897500;29;20608;-54
2022/05/03 02:36:17;;;;;;;6.90;6.20;;;11.20;99.90;;;;;;4864862;29;20229;-57
2022/05/03 02:39:04;;;;;;;6.27;5.67;;;11.30;99.90;;;;;;4897260;29;20238;-56
2022/05/03 02:41:37;;;;;;;6.47;5.87;;;11.40;99.90;;;;;;4928478;28;20642;-57
2022/05/03 02:44:03;;;;;;;6.77;6.07;;;11.40;99.90;;;;;;4995025;28;20812;-59
2022/05/03 02:46:51;;;;;;;6.10;5.60;;;11.00;99.90;;;;;;4995274;28;20180;-54
2022/05/03 02:49:47;;;;;;;6.77;6.17;;;11.40;99.90;;;;;;4995122;28;20219;-57
2022/05/03 02:52:27;;;;;;;7.33;6.63;;;11.30;99.90;;;;;;4995117;28;20585;-55
2022/05/03 02:55:29;;;;;;;6.40;5.80;;;10.90;99.90;;;;;;4994796;28;20184;-56
2022/05/03 02:58:04;;;;;;;6.57;5.97;;;11.40;99.90;;;;;;4994906;28;20692;-52
2022/05/03 03:03:43;;;;;;;7.27;6.57;;;11.20;99.90;;;;;;4995133;28;20212;-61
2022/05/03 03:06:23;;;;;;;7.13;6.43;;;11.00;99.90;;;;;;4994901;28;20215;-59
2022/05/03 03:08:54;;;;;;;7.57;6.87;;;11.20;99.90;;;;;;4994336;28;20189;-56
2022/05/03 03:12:01;;;;;;;7.50;6.80;;;11.40;99.90;;;;;;4994882;28;20597;-55
2022/05/03 03:15:02;;;;;;;7.43;6.63;;;11.40;99.90;;;;;;4994334;28;20220;-59
2022/05/03 03:17:29;;;;;;;7.50;6.80;;;11.10;99.90;;;;;;4896450;29;20216;-59
2022/05/03 03:20:07;;;;;;;7.77;7.03;;;11.10;99.90;;;;;;4896609;29;20173;-54
2022/05/03 03:22:42;;;;;;;6.43;5.70;;;10.90;99.90;;;;;;4880964;29;20235;-55
2022/05/03 03:25:10;;;;;;;7.07;6.33;;;10.90;99.90;;;;;;4896255;29;20231;-58
2022/05/03 03:27:47;;;;;;;6.93;6.13;;;10.70;99.90;;;;;;4896653;29;20717;-62
2022/05/03 03:30:15;;;;;;;5.87;5.37;;;10.60;99.90;;;;;;4896624;29;20176;-53
2022/05/03 03:32:47;;;;;;;7.10;6.37;;;10.70;99.90;;;;;;4896502;29;20176;-53
2022/05/03 03:35:14;;;;;;;7.50;6.20;;;10.90;99.90;;;;;;4895912;29;20591;-55
2022/05/03 03:37:46;;;;;;;8.13;6.63;;;10.90;99.90;;;;;;4896222;29;20212;-56
2022/05/03 03:40:14;;;;;;;7.87;7.00;;;10.80;99.90;;;;;;4896326;29;20268;-57
2022/05/03 03:42:42;;;;;;;8.83;7.07;;;10.70;99.90;;;;;;4896268;29;20220;-58
2022/05/03 03:45:10;;;;;;;8.17;7.37;;;10.70;99.90;;;;;;4895909;29;20586;-56
2022/05/03 03:47:36;;;;;;;8.83;7.40;;;10.50;99.90;;;;;;4896081;29;20242;-57
2022/05/03 03:50:03;;;;;;;8.47;7.40;;;10.70;99.90;;;;;;4896065;29;20195;-55
2022/05/03 03:52:30;;;;;;;9.17;8.27;;;10.50;99.90;;;;;;4895941;29;20659;-56
2022/05/03 03:54:57;;;;;;;8.77;7.93;;;10.80;99.90;;;;;;4992785;28;20182;-53
2022/05/03 03:57:24;;;;;;;8.63;7.83;;;10.50;99.90;;;;;;4993768;28;20677;-56
2022/05/03 03:59:50;;;;;;;9.73;8.73;;;10.30;99.90;;;;;;4993930;28;20271;-55
2022/05/03 04:02:16;;;;;;;9.80;8.80;;;10.80;99.90;;;;;;4993841;28;20208;-53
2022/05/03 04:04:44;;;;;;;9.90;9.00;;;10.30;99.90;;;;;;4993452;28;20200;-56
2022/05/03 04:07:10;;;;;;;9.97;8.00;;;10.70;99.90;;;;;;4993657;28;20169;-55
2022/05/03 04:09:36;;;;;;;8.70;7.90;;;;;;;;;;4993635;28;20224;-56
2022/05/03 04:12:03;;;;;;;9.00;8.10;;;10.80;99.90;;;;;;4993811;28;20181;-57
2022/05/03 04:14:29;;;;;;;8.70;7.90;;;10.40;99.90;;;;;;4993287;28;20192;-57
2022/05/03 04:16:56;;;;;;;8.87;7.57;;;10.60;99.90;;;;;;4993552;28;20201;-58
2022/05/03 04:19:22;;;;;;;7.97;7.17;;;;;;;;;;4993111;28;20173;-58
2022/05/03 04:21:48;;;;;;;8.17;7.37;;;10.30;99.90;;;;;;4993178;28;20227;-54
2022/05/03 04:24:13;;;;;;;8.80;7.93;;;10.50;99.90;;;;;;4992988;28;20746;-55
2022/05/03 04:26:39;;;;;;;8.83;7.80;;;10.10;99.90;;;;;;4993320;28;20189;-56
2022/05/03 04:29:06;;;;;;;8.50;7.63;;;10.20;99.90;;;;;;4993517;28;20236;-54
2022/05/03 04:31:34;;;;;;;8.73;7.93;;;10.30;99.90;;;;;;4993935;28;20259;-52
2022/05/03 04:34:03;;;;;;;8.67;7.87;;;10.10;99.90;;;;;;4993593;28;20237;-54
2022/05/03 04:36:30;;;;;;;8.43;7.63;;;10.40;99.90;;;;;;4993147;28;20204;-57
2022/05/03 04:38:56;;;;;;;8.50;7.70;;;10.40;99.90;;;;;;4993062;28;20289;-55
2022/05/03 04:41:23;;;;;;;8.40;7.53;;;10.60;99.90;;;;;;4993319;28;20180;-52
2022/05/03 04:43:49;;;;;;;8.43;7.50;;;10.40;99.90;;;;;;4993088;28;20535;-52
2022/05/03 04:46:15;;;;;;;8.40;7.60;;;10.90;99.90;;;;;;4993077;28;20190;-57
2022/05/03 04:48:40;;;;;;;8.87;7.73;;;10.70;99.90;;;;;;4992953;28;20193;-55
2022/05/03 04:51:14;;;;;;;8.30;7.43;;;10.30;99.90;;;;;;4992853;28;20177;-53
2022/05/03 04:53:40;;;;;;;8.33;7.20;;;10.70;99.90;;;;;;4992883;28;20173;-55
2022/05/03 04:56:05;;;;;;;8.37;7.57;;;10.90;99.90;;;;;;4992888;28;20172;-52
2022/05/03 04:58:31;;;;;;;8.80;7.03;;;11.10;99.90;;;;;;4992809;28;20193;-56
2022/05/03 05:00:57;;;;;;;8.27;7.40;;;11.30;99.90;;;;;;4992802;28;20204;-53
2022/05/03 05:03:23;;;;;;;7.00;6.30;;;;;;;;;;4992608;28;20177;-58
2022/05/03 05:05:48;;;;;;;7.80;7.10;;;11.10;99.90;;;;;;4992831;28;20256;-57
2022/05/03 05:08:14;;;;;;;7.60;6.90;;;11.40;99.90;;;;;;4992528;28;20211;-56
2022/05/03 05:10:39;;;;;;;8.27;7.10;;;11.50;99.90;;;;;;4992593;28;20233;-53
2022/05/03 05:13:05;;;;;;;8.13;7.33;;;11.40;99.90;;;;;;4992722;28;20181;-57
2022/05/03 05:15:30;;;;;;;8.30;7.50;;;11.40;99.90;;;;;;4992363;28;20235;-56
2022/05/03 05:17:58;;;;;;;8.13;7.33;;;11.20;99.90;;;;;;4992453;28;20208;-56
2022/05/03 05:20:25;;;;;;;7.40;6.70;;;11.50;99.90;;;;;;4992572;28;20646;-58
2022/05/03 05:22:51;;;;;;;7.60;6.90;;;11.70;99.90;;;;;;4992822;28;20177;-55
2022/05/03 05:25:17;;;;;;;7.83;7.07;;;11.70;99.90;;;;;;4992173;28;20169;-52
2022/05/03 05:27:43;;;;;;;7.13;6.43;;;11.90;99.90;;;;;;4992458;28;20383;-55
2022/05/03 05:30:09;;;;;;;7.53;6.57;;;11.80;99.90;;;;;;4992449;28;20644;-54
2022/05/03 05:32:36;;;;;;;7.97;7.23;;;12.20;99.90;;;;;;4995707;28;20234;-53
2022/05/03 05:35:04;;;;;;;7.97;7.17;;;12.00;99.90;;;;;;4996248;28;20292;-54
2022/05/03 05:37:30;;;;;;;7.17;6.57;;;11.80;99.90;;;;;;4996388;28;20232;-54
2022/05/03 05:39:55;;;;;;;7.07;6.37;;;11.90;99.90;;;;;;4996517;28;20181;-57
2022/05/03 05:42:21;;;;;;;7.50;6.80;;;12.30;99.90;;;;;;4996396;28;20542;-56
2022/05/03 05:44:46;;;;;;;7.30;6.60;;;12.20;99.90;;;;;;4996125;28;20180;-55
2022/05/03 05:47:13;;;;;;;6.80;6.10;;;12.50;99.90;;;;;;4996213;28;20658;-55
2022/05/03 05:49:39;;;;;;;7.03;6.37;;;12.80;99.90;;;;;;4996314;28;20177;-51
2022/05/03 05:54:49;;;;;;;6.83;6.23;;;12.70;99.90;;;;;;4995941;28;20280;-51
2022/05/03 05:57:15;;;;;;;7.50;6.80;;;12.90;99.90;;;;;;4995995;28;20295;-56
2022/05/03 05:59:41;;;;;;;8.40;6.77;;;12.90;99.90;;;;;;4996173;28;20177;-55
2022/05/03 06:02:06;;;;;;;8.53;7.73;;;12.90;99.90;;;;;;4995502;28;20188;-54
2022/05/03 06:04:33;;;;;;;9.77;8.50;;;13.00;99.90;;;;;;4995523;28;20181;-58
2022/05/03 06:06:59;;;;;;;9.73;8.73;;;13.10;99.90;;;;;;4995777;28;20177;-55
2022/05/03 06:09:24;;;;;;;11.83;10.00;;;13.00;99.90;;;;;;4995088;28;20193;-55
2022/05/03 06:11:50;;;;;;;12.30;10.77;;;12.80;99.90;;;;;;4995560;28;20236;-55
2022/05/03 06:14:16;;;;;;;10.70;9.70;;;13.00;99.90;;;;;;4994941;28;20185;-54
2022/05/03 06:16:57;;;;;;;9.97;8.97;;;12.70;99.90;;;;;;4995332;28;20208;-56
2022/05/03 06:19:23;;;;;;;10.23;9.20;;;12.70;99.90;;;;;;4995468;28;20232;-54
2022/05/03 06:21:49;;;;;;;10.93;9.77;;;12.60;99.90;;;;;;4992804;28;20189;-58
2022/05/03 06:24:16;;;;;;;11.27;9.83;;;12.60;99.90;;;;;;4993812;28;20193;-53
2022/05/03 06:26:41;;;;;;;11.60;10.50;;;12.60;99.90;;;;;;4995603;28;20638;-58
2022/05/03 06:29:08;;;;;;;11.07;10.03;;;12.70;99.90;;;;;;4995511;28;20216;-54
2022/05/03 06:31:42;;;;;;;11.50;10.40;;;13.20;99.90;;;;;;4995521;28;20256;-55
2022/05/03 06:34:08;;;;;;;10.57;9.47;;;12.70;99.90;;;;;;4995160;28;20569;-56
2022/05/03 06:36:37;;;;;;;10.13;9.23;;;12.70;99.90;;;;;;4994707;28;20295;-53
2022/05/03 06:39:04;;;;;;;10.17;9.00;;;13.00;99.90;;;;;;4995391;28;20267;-54
2022/05/03 06:41:30;;;;;;;9.87;8.97;;;12.90;99.90;;;;;;4995432;28;20212;-55
2022/05/03 06:43:58;;;;;;;9.13;8.27;;;13.10;99.90;;;;;;4994210;28;20216;-55
2022/05/03 06:46:24;;;;;;;9.57;8.60;;;13.40;99.90;;;;;;4995294;28;20730;-56
2022/05/03 06:48:49;;;;;;;8.73;7.90;;;13.60;99.90;;;;;;4995330;28;20201;-55
2022/05/03 06:51:15;;;;;;;8.60;7.80;;;13.80;99.90;;;;;;4995385;28;20186;-53
2022/05/03 06:53:41;;;;;;;8.20;7.40;;;13.90;99.90;;;;;;4994915;28;20178;-56
2022/05/03 06:56:07;;;;;;;9.93;8.90;;;14.00;99.90;;;;;;4994939;28;20570;-53
2022/05/03 06:58:32;;;;;;;9.27;8.37;;;14.20;99.90;;;;;;4995006;28;20206;-56
2022/05/03 07:01:05;;;;;;;9.13;8.27;;;14.40;99.90;;;;;;4994937;28;20180;-57
2022/05/03 07:03:31;;;;;;;8.67;7.87;;;14.30;99.90;;;;;;4994710;28;20178;-55
2022/05/03 07:05:56;;;;;;;8.80;7.97;;;14.30;99.90;;;;;;4994835;28;20233;-56
2022/05/03 07:08:22;;;;;;;8.37;7.60;;;14.40;99.90;;;;;;4994801;28;20197;-54
2022/05/03 07:10:47;;;;;;;8.97;8.07;;;14.40;99.90;;;;;;4994755;28;20589;-57
2022/05/03 07:13:13;;;;;;;8.50;7.70;;;14.50;99.90;;;;;;4994944;28;20541;-57
2022/05/03 07:15:39;;;;;;;8.70;7.87;;;14.40;99.90;;;;;;4994357;28;20180;-57
2022/05/03 07:23:32;;;;;;;7.80;7.10;;;14.40;99.90;;;;;;4994384;28;20193;-56
2022/05/03 07:25:59;;;;;;;7.60;6.90;;;14.60;99.90;;;;;;4994598;28;20291;-55
2022/05/03 07:28:25;;;;;;;7.53;6.83;;;14.70;99.90;;;;;;4994377;28;20252;-52
2022/05/03 07:30:51;;;;;;;8.23;7.13;;;14.80;99.90;;;;;;4994552;28;20268;-52
2022/05/03 07:33:17;;;;;;;7.70;6.27;;;15.10;99.90;;;;;;4994552;28;20522;-56
2022/05/03 07:35:42;;;;;;;6.87;6.10;;;15.30;99.90;;;;;;4994109;28;20198;-55
2022/05/03 07:38:08;;;;;;;6.70;6.10;;;15.30;99.90;;;;;;4994318;28;20208;-55
2022/05/03 07:40:34;;;;;;;7.33;6.60;;;15.50;99.90;;;;;;4994308;28;20200;-54
2022/05/03 07:43:01;;;;;;;18.57;12.97;;;15.30;99.90;;;;;;4994204;28;20173;-54
2022/05/03 07:45:27;;;;;;;7.57;6.60;;;15.30;99.90;;;;;;4993866;28;20220;-55
2022/05/03 07:47:52;;;;;;;10.03;9.13;;;15.20;99.90;;;;;;4994084;28;20200;-56
2022/05/03 07:50:18;;;;;;;7.57;6.77;;;15.30;99.90;;;;;;4993957;28;20180;-54
2022/05/03 07:52:44;;;;;;;5.80;5.27;;;15.50;99.90;;;;;;4989970;28;20182;-55
2022/05/03 07:55:09;;;;;;;6.67;6.07;;;15.70;99.90;;;;;;4982542;28;20181;-57
2022/05/03 07:57:35;;;;;;;7.23;6.53;;;15.90;99.90;;;;;;4983776;28;20236;-56
2022/05/03 08:00:01;;;;;;;8.40;5.60;;;;;;;;;;4982161;28;20166;-55
2022/05/03 08:02:27;;;;;;;6.70;6.10;;;16.10;99.90;;;;;;4982908;28;20184;-55
2022/05/03 08:04:53;;;;;;;6.70;6.10;;;16.10;99.90;;;;;;4983190;28;20170;-56
2022/05/03 08:07:20;;;;;;;6.57;5.97;;;16.10;99.90;;;;;;4981538;28;20204;-55
2022/05/03 08:09:46;;;;;;;5.10;4.60;;;16.40;99.90;;;;;;4982917;28;20181;-56
2022/05/03 08:12:13;;;;;;;5.97;5.33;;;16.70;99.90;;;;;;4983290;28;20248;-56
2022/05/03 08:14:39;;;;;;;6.43;5.83;;;16.70;99.90;;;;;;4981352;28;20547;-52
2022/05/03 08:17:05;;;;;;;5.60;5.10;;;16.90;99.90;;;;;;4986452;28;20257;-57
2022/05/03 08:19:31;;;;;;;6.20;5.60;;;16.90;99.90;;;;;;4982621;28;20201;-56
2022/05/03 08:21:57;;;;;;;6.20;5.60;;;17.10;99.90;;;;;;4982400;28;20182;-55
2022/05/03 08:24:23;;;;;;;6.60;6.00;;;17.20;99.90;;;;;;4983661;28;20362;-52
2022/05/03 08:26:49;;;;;;;8.63;7.27;;;17.30;99.90;;;;;;4982890;28;20590;-58
2022/05/03 08:29:15;;;;;;;6.40;5.80;;;;;;;;;;4982508;28;20210;-55
2022/05/03 08:31:41;;;;;;;7.93;5.80;;;17.30;99.90;;;;;;4983999;28;20188;-55
2022/05/03 08:34:07;;;;;;;7.07;6.33;;;17.40;99.90;;;;;;4981854;28;20558;-54
2022/05/03 08:36:33;;;;;;;5.80;5.30;;;17.50;99.90;;;;;;4982801;28;20544;-54
2022/05/03 08:42:02;;;;;;;8.40;7.20;;;17.60;99.90;;;;;;5003737;28;20235;-55
2022/05/03 08:44:31;;;;;;;6.80;5.83;;;17.80;99.90;;;;;;4998951;28;20172;-53
2022/05/03 08:46:58;;;;;;;6.80;5.00;;;17.70;99.90;;;;;;4984342;28;20175;-53
2022/05/03 08:49:25;;;;;;;6.67;5.13;;;17.80;99.90;;;;;;5006319;28;20265;-56
2022/05/03 08:51:53;;;;;;;6.87;6.17;;;18.00;99.90;;;;;;5012375;28;20181;-52
2022/05/03 08:54:20;;;;;;;7.30;5.93;;;18.10;99.90;;;;;;5012132;28;20576;-55
2022/05/03 08:56:47;;;;;;;6.10;5.60;;;17.80;99.90;;;;;;5012351;28;20192;-55
2022/05/03 08:59:13;;;;;;;5.60;5.17;;;17.90;99.90;;;;;;5012371;28;20196;-53
2022/05/03 09:01:39;;;;;;;6.27;5.10;;;18.10;99.90;;;;;;5012616;28;20176;-56
2022/05/03 09:04:06;;;;;;;5.53;5.03;;;18.40;99.90;;;;;;5012148;28;20169;-56
2022/05/03 09:06:46;;;;;;;5.10;4.70;;;18.40;99.90;;;;;;5011903;28;20175;-57
2022/05/03 09:09:14;;;;;;;5.97;5.47;;;18.80;99.90;;;;;;5012234;28;20201;-58
2022/05/03 09:11:47;;;;;;;5.83;5.23;;;18.70;99.90;;;;;;5012203;28;20177;-56
2022/05/03 09:14:33;;;;;;;5.33;4.83;;;19.80;99.90;;;;;;5012059;28;20642;-55
2022/05/03 09:16:59;;;;;;;5.37;4.60;;;18.80;99.90;;;;;;5012004;28;20223;-56
2022/05/03 09:19:25;;;;;;;5.77;4.60;;;18.90;99.90;;;;;;5012258;28;20588;-52
2022/05/03 09:25:02;;;;;;;4.87;4.47;;;19.10;99.90;;;;;;5012049;28;20180;-52
2022/05/03 09:27:28;;;;;;;4.77;4.37;;;18.90;99.90;;;;;;5011827;28;20286;-52
2022/05/03 09:30:07;;;;;;;4.90;4.40;;;18.90;99.90;;;;;;5009817;22;20323;-49
2022/05/03 09:32:36;;;;;;;4.67;4.27;;;19.00;99.90;;;;;;4991454;28;20204;-49
2022/05/03 09:35:03;;;;;;;3.90;3.60;;;19.00;99.90;;;;;;4974435;28;20177;-49
2022/05/03 09:37:39;;;;;;;3.73;3.43;;;19.00;99.90;;;;;;4991648;28;20213;-50
2022/05/03 09:40:06;;;;;;;3.10;2.83;;;18.90;99.90;;;;;;4992046;28;20280;-49
2022/05/03 09:42:36;;;;;;;5.40;3.50;;;18.90;99.90;;;;;;4992155;28;20166;-53
2022/05/03 09:45:03;;;;;;;4.63;4.23;;;19.00;99.90;;;;;;4992148;28;20178;-49
2022/05/03 09:47:33;;;;;;;5.00;4.60;;;19.20;99.90;;;;;;4991798;28;20180;-51
2022/05/03 09:50:00;;;;;;;5.73;4.40;;;19.40;99.90;;;;;;4992118;28;20201;-53
2022/05/03 09:52:37;;;;;;;4.63;4.23;;;19.60;99.90;;;;;;4992149;28;20642;-49
2022/05/03 09:55:06;;;;;;;4.83;4.43;;;19.60;99.90;;;;;;4991357;28;20204;-49
2022/05/03 09:57:34;;;;;;;4.30;3.90;;;19.50;99.90;;;;;;4992038;28;20200;-52
2022/05/03 10:00:01;;;;;;;5.43;4.93;;;19.50;99.90;;;;;;4992184;28;20198;-53
2022/05/03 10:02:28;;;;;;;4.87;4.10;;;19.50;99.90;;;;;;4991601;28;20530;-49
2022/05/03 10:04:56;;;;;;;3.77;3.47;;;19.60;99.90;;;;;;4991551;28;20176;-50
2022/05/03 10:07:22;;;;;;;5.77;5.27;;;19.80;99.90;;;;;;4991935;28;20591;-50
2022/05/03 10:09:48;;;;;;;4.60;4.20;;;19.90;99.90;;;;;;4991920;28;20213;-50
2022/05/03 10:12:15;;;;;;;4.77;4.37;;;20.00;99.90;;;;;;4992098;28;20180;-51
2022/05/03 10:14:41;;;;;;;4.07;3.77;;;20.00;99.90;;;;;;4991312;28;20260;-54
2022/05/03 10:20:36;;;;;;;5.90;5.30;;;20.40;99.90;;;;;;4995742;28;20252;-50
2022/05/03 10:23:01;;;;;;;5.57;5.07;;;20.50;99.90;;;;;;4995467;28;20227;-49
2022/05/03 10:25:49;;;;;;;5.30;4.80;;;20.60;99.90;;;;;;4995217;28;20173;-49
2022/05/03 10:28:15;;;;;;;5.67;5.17;;;20.70;99.90;;;;;;4995324;28;20281;-53
2022/05/03 10:31:06;;;;;;;5.80;5.20;;;20.60;99.90;;;;;;4995432;28;20205;-54
2022/05/03 10:33:32;;;;;;;6.10;5.50;;;20.60;99.90;;;;;;4995069;28;20543;-54
2022/05/03 10:35:59;;;;;;;5.23;4.73;;;20.70;99.90;;;;;;4995185;28;20177;-49
2022/05/03 10:39:02;;;;;;;6.53;5.30;;;20.40;99.90;;;;;;4994392;28;20217;-51
2022/05/03 10:41:29;;;;;;;6.07;5.07;;;20.30;99.90;;;;;;4896893;29;20245;-49
2022/05/03 10:43:55;;;;;;;5.60;4.90;;;20.20;99.90;;;;;;4896953;29;20181;-52
2022/05/03 10:46:22;;;;;;;5.70;5.00;;;20.40;99.90;;;;;;4897092;29;20185;-51
2022/05/03 10:49:15;;;;;;;4.80;4.40;;;20.60;99.90;;;;;;4897235;29;20286;-53
2022/05/03 10:51:42;;;;;;;5.47;4.97;;;20.50;99.90;;;;;;4896988;29;20243;-49
2022/05/03 10:54:08;;;;;;;7.28;5.07;;;20.60;99.90;;;;;;4896867;29;20173;-51
2022/05/03 10:56:34;;;;;;;5.40;4.90;;;20.70;99.90;;;;;;4896991;29;20312;-53
2022/05/03 10:59:15;;;;;;;4.00;3.70;;;20.80;99.90;;;;;;4896834;29;20288;-48
2022/05/03 11:01:55;;;;;;;4.50;4.10;;;21.00;99.90;;;;;;4895889;29;20181;-51
2022/05/03 11:04:22;;;;;;;4.57;4.17;;;20.60;99.90;;;;;;4880626;29;20193;-51
2022/05/03 11:06:51;;;;;;;4.63;3.80;;;20.30;99.90;;;;;;4878205;29;20181;-50
2022/05/03 11:09:33;;;;;;;4.17;3.63;;;20.10;99.90;;;;;;4880378;29;20367;-54
2022/05/03 11:12:01;;;;;;;4.80;4.30;;;20.20;99.90;;;;;;4887689;29;20216;-52
2022/05/03 11:14:27;;;;;;;3.67;3.38;;;20.40;99.90;;;;;;4885931;29;20686;-53
2022/05/03 11:17:01;;;;;;;3.30;3.00;;;20.40;99.90;;;;;;4900640;28;20209;-51
2022/05/03 11:19:27;;;;;;;3.67;3.37;;;20.50;99.40;;;;;;4994774;28;20205;-49
2022/05/03 11:21:53;;;;;;;5.13;3.83;;;20.50;98.60;;;;;;4982275;28;20651;-54
2022/05/03 11:24:25;;;;;;;4.68;3.38;;;20.60;98.60;;;;;;4991647;28;20188;-49
2022/05/03 11:27:02;;;;;;;6.88;3.47;;;20.80;99.20;;;;;;4994299;28;20240;-50
2022/05/03 11:29:29;;;;;;;3.10;2.90;;;21.00;99.40;;;;;;4993999;28;20209;-53
2022/05/03 11:31:58;;;;;;;5.47;3.50;;;21.00;99.90;;;;;;4994496;28;20639;-50
2022/05/03 11:34:23;;;;;;;3.50;3.20;;;21.10;99.10;;;;;;4994035;28;20317;-50
2022/05/03 11:36:52;;;;;;;3.15;2.95;;;21.00;99.90;;;;;;4993757;28;20729;-51
2022/05/03 11:39:19;;;;;;;3.22;3.03;;;20.90;99.90;;;;;;4993714;28;21009;-52
2022/05/03 11:41:45;;;;;;;3.30;3.00;;;20.80;99.90;;;;;;4984433;28;20518;-54
2022/05/03 11:44:11;;;;;;;3.33;3.03;;;21.00;99.50;;;;;;4993775;28;20182;-52
2022/05/03 11:46:39;;;;;;;3.25;2.95;;;21.10;99.90;;;;;;4993360;28;20187;-51
2022/05/03 11:49:06;;;;;;;4.15;3.42;;;21.20;99.70;;;;;;4993976;28;20194;-52
2022/05/03 11:57:20;;;;;;;3.10;2.90;;;21.10;99.10;;;;;;4994120;28;20201;-52
2022/05/03 11:59:49;;;;;;;2.40;2.30;;;21.30;97.90;;;;;;4993618;28;20222;-51
2022/05/03 12:02:17;;;;;;;3.60;2.95;;;21.40;97.00;;;;;;5011091;28;20183;-49
2022/05/03 12:05:16;;;;;;;3.17;2.88;;;21.40;95.40;;;;;;4993221;28;20164;-54
2022/05/03 12:07:53;;;;;;;3.05;2.85;;;21.70;94.60;;;;;;4993676;28;20766;-49
2022/05/03 12:10:28;;;;;;;3.03;2.70;;;21.70;94.80;;;;;;4976316;28;20184;-55
2022/05/03 12:13:08;;;;;;;3.00;2.70;;;21.70;94.90;;;;;;4993692;28;20649;-51
2022/05/03 12:15:39;;;;;;;4.15;2.67;;;21.70;95.10;;;;;;4993300;28;20178;-51
2022/05/03 12:18:18;;;;;;;2.50;2.30;;;21.80;97.00;;;;;;4993423;28;20209;-52
2022/05/03 12:20:51;;;;;;;1.90;1.80;;;22.20;92.50;;;;;;4992553;28;20220;-51
2022/05/03 12:23:22;;;;;;;3.10;2.80;;;22.50;93.40;;;;;;4994950;28;20177;-53
2022/05/03 12:25:56;;;;;;;2.55;2.38;;;22.60;92.60;;;;;;4984509;28;20171;-54
2022/05/03 12:28:38;;;;;;;2.38;2.20;;;22.90;95.70;;;;;;4989144;28;20943;-54
2022/05/03 12:31:08;;;;;;;2.80;2.60;;;23.30;96.40;;;;;;4983842;28;20197;-51
2022/05/03 12:33:43;;;;;;;2.70;2.50;;;23.70;96.00;;;;;;4982042;28;20579;-55
2022/05/03 12:36:09;;;;;;;2.75;2.20;;;24.00;94.10;;;;;;4982303;28;20189;-53
2022/05/03 12:38:47;;;;;;;2.28;2.10;;;23.80;92.80;;;;;;4964726;28;20567;-56
2022/05/03 12:41:23;;;;;;;2.60;2.40;;;24.00;92.90;;;;;;4982188;28;20165;-53
2022/05/03 12:44:03;;;;;;;2.40;2.30;;;24.30;93.70;;;;;;4982971;28;20757;-50
2022/05/03 12:46:30;;;;;;;2.83;2.30;;;24.40;91.40;;;;;;4983468;28;20698;-51
2022/05/03 12:48:55;;;;;;;2.40;2.17;;;24.40;91.60;;;;;;4983102;28;20193;-51
2022/05/03 12:51:21;;;;;;;3.53;2.30;;;24.60;91.30;;;;;;4983112;28;20177;-55
2022/05/03 12:53:48;;;;;;;5.68;2.47;;;24.50;88.20;;;;;;4981349;28;20757;-53
2022/05/03 12:58:59;;;;;;;2.45;2.22;;;24.20;90.80;;;;;;4982985;28;20200;-52
2022/05/03 13:01:25;;;;;;;2.92;2.20;;;24.20;93.20;;;;;;4981620;28;20204;-51
2022/05/03 13:03:51;;;;;;;2.60;2.40;;;24.60;90.80;;;;;;4974792;28;20608;-52
2022/05/03 13:06:17;;;;;;;2.50;2.30;;;24.90;89.40;;;;;;4992530;28;20184;-54
2022/05/03 13:08:43;;;;;;;2.47;2.28;;;25.00;83.90;;;;;;4992601;28;20188;-51
2022/05/03 13:11:10;;;;;;;2.53;2.33;;;25.00;86.50;;;;;;4992562;28;20188;-53
2022/05/03 13:13:36;;;;;;;2.40;2.30;;;24.60;84.70;;;;;;4985124;28;20174;-53
2022/05/03 13:16:02;;;;;;;2.30;2.10;;;24.70;84.00;;;;;;4988118;28;20586;-54
2022/05/03 13:18:28;;;;;;;2.42;2.22;;;25.10;86.60;;;;;;4992492;28;20292;-53
2022/05/03 13:20:54;;;;;;;3.20;2.88;;;25.60;84.20;;;;;;4986244;28;20169;-54
2022/05/03 13:23:20;;;;;;;2.70;2.50;;;25.90;84.30;;;;;;4979271;28;20189;-51
2022/05/03 13:25:46;;;;;;;4.03;2.35;;;26.20;86.70;;;;;;4977935;28;20203;-54
2022/05/03 13:28:11;;;;;;;2.25;2.08;;;26.40;88.70;;;;;;4977605;28;20349;-53
2022/05/03 13:30:37;;;;;;;2.17;2.08;;;26.70;88.70;;;;;;4976575;28;20184;-56
2022/05/03 13:33:02;;;;;;;2.72;2.42;;;27.10;87.60;;;;;;4975221;28;20546;-54
2022/05/03 13:40:57;;;;;;;2.92;2.55;;;27.50;85.90;;;;;;4991047;28;20199;-55
2022/05/03 13:43:22;;;;;;;3.08;2.78;;;27.60;83.60;;;;;;4982477;28;20178;-54
2022/05/03 13:45:49;;;;;;;3.05;2.50;;;26.80;81.50;;;;;;4978782;28;20203;-54
2022/05/03 13:48:16;;;;;;;3.38;3.05;;;26.20;82.00;;;;;;4983170;28;20201;-54
2022/05/03 13:50:42;;;;;;;5.95;3.20;;;25.80;81.50;;;;;;4992237;28;20184;-55